^^
Mint Hill Weather Station Historical Data
 
Daily Summary for October 25, 2014 Units:  English    Metric   Both
« Previous Day
Next Day »
Daily Weekly Monthly Yearly Custom
  Current: High: Low: Average:
Temperature: 47.5 °F 49.5 °F 46.5 °F 47.8 °F
Dew Point: 44.7 °F 46.1 °F 44.0 °F 45 °F
Humidity: 90% 93% 88% 90%
Wind Speed: 0.0mph 1.5mph 0.0mph 0.2mph
Wind Gust: 0.0mph 3.5mph - -
WindCalm - - WNW
Pressure: 29.98 in 29.99 in 29.98 in -
Precipitation: 0.00 in      
Historical Graphs
 
 
Tabular Data for October 25, 2014
Time Temperature Dew Point Pressure Wind Wind Speed Wind Gust Humidity Rainfall Rate (Hourly) solar Conditions
00:03 49.5 °F 46.1 °F 29.99 in Calm     88% 0.00 in 0.0 W/m2 CLR
00:08 49.5 °F 46.1 °F 29.99 in Calm     88% 0.00 in 0.0 W/m2 CLR
00:13 49.4 °F 46.0 °F 29.99 in NNW 0.4 mph 1.1 mph 88% 0.00 in 0.0 W/m2 CLR
00:18 49.4 °F 46.0 °F 29.99 in NNW 0.4 mph 1.1 mph 88% 0.00 in 0.0 W/m2 CLR
00:23 49.3 °F 45.9 °F 29.99 in Calm     88% 0.00 in 0.0 W/m2 CLR
00:28 49.3 °F 45.9 °F 29.99 in NNW 0.3 mph 2.3 mph 88% 0.00 in 0.0 W/m2 CLR
00:33 49.3 °F 45.9 °F 29.99 in Calm     88% 0.00 in 0.0 W/m2 CLR
00:38 49.0 °F 45.9 °F 29.99 in Calm     89% 0.00 in 0.0 W/m2 CLR
00:43 48.6 °F 45.5 °F 29.99 in Calm     89% 0.00 in 0.0 W/m2 CLR
00:48 48.2 °F 45.1 °F 29.99 in Calm     89% 0.00 in 0.0 W/m2 CLR
00:53 48.1 °F 45.0 °F 29.99 in Calm     89% 0.00 in 0.0 W/m2 CLR
00:58 47.8 °F 45.0 °F 29.99 in Calm     90% 0.00 in 0.0 W/m2 CLR
01:03 47.8 °F 45.0 °F 29.99 in Calm     90% 0.00 in 0.0 W/m2 CLR
01:08 47.8 °F 45.0 °F 29.99 in Calm     90% 0.00 in 0.0 W/m2 CLR
01:13 47.8 °F 45.0 °F 29.99 in NW 0.8 mph 2.3 mph 90% 0.00 in 0.0 W/m2 CLR
01:18 47.7 °F 44.9 °F 29.99 in NW 0.2 mph 1.1 mph 90% 0.00 in 0.0 W/m2 CLR
01:23 47.7 °F 44.9 °F 29.99 in NW 0.7 mph 2.3 mph 90% 0.00 in 0.0 W/m2 CLR
01:28 47.6 °F 45.1 °F 29.99 in Calm     91% 0.00 in 0.0 W/m2 CLR
01:33 47.4 °F 44.6 °F 29.99 in NW 0.3 mph 2.3 mph 90% 0.00 in 0.0 W/m2 CLR
01:38 47.2 °F 44.4 °F 29.99 in Calm     90% 0.00 in 0.0 W/m2 CLR
01:43 47.1 °F 44.6 °F 29.99 in Calm     91% 0.00 in 0.0 W/m2 CLR
01:48 47.0 °F 44.2 °F 29.99 in Calm     90% 0.00 in 0.0 W/m2 CLR
01:53 46.8 °F 44.0 °F 29.98 in Calm   1.1 mph 90% 0.00 in 0.0 W/m2 CLR
01:58 46.7 °F 44.2 °F 29.98 in Calm     91% 0.00 in 0.0 W/m2 CLR
02:03 46.8 °F 44.3 °F 29.99 in NNW 0.7 mph 2.3 mph 91% 0.00 in 0.0 W/m2 CLR
02:08 46.8 °F 44.3 °F 29.98 in NW 0.4 mph 1.1 mph 91% 0.00 in 0.0 W/m2 CLR
02:13 46.8 °F 44.3 °F 29.98 in Calm   1.1 mph 91% 0.00 in 0.0 W/m2 CLR
02:18 46.7 °F 44.2 °F 29.98 in Calm     91% 0.00 in 0.0 W/m2 CLR
02:23 46.5 °F 44.0 °F 29.98 in Calm     91% 0.00 in 0.0 W/m2 CLR
02:28 46.5 °F 44.0 °F 29.98 in Calm   3.5 mph 91% 0.00 in 0.0 W/m2 CLR
02:33 46.6 °F 44.4 °F 29.98 in NW 1.3 mph 3.5 mph 92% 0.00 in 0.0 W/m2 CLR
02:38 47.3 °F 45.4 °F 29.98 in North 0.1 mph 2.3 mph 93% 0.00 in 0.0 W/m2 CLR
02:43 47.8 °F 45.6 °F 29.99 in NW 1.5 mph 3.5 mph 92% 0.00 in 0.0 W/m2 CLR
02:48 47.8 °F 45.3 °F 29.98 in NNW 0.1 mph 1.0 mph 91% 0.00 in 0.0 W/m2 CLR
02:53 47.7 °F 45.2 °F 29.99 in Calm   1.1 mph 91% 0.00 in 0.0 W/m2 CLR
02:58 47.5 °F 44.7 °F 29.98 in Calm     90% 0.00 in 0.0 W/m2 CLR
Mint Hill, North Carolina, USA
Compliments of Weather Underground